sensor_id;sensor_type;location;lat;lon;timestamp;P1;durP1;ratioP1;P2;durP2;ratioP2
43345;SDS011;28937;51.160;4.146;2023-11-21T00:01:01;21.50;;;17.35;;
43345;SDS011;28937;51.160;4.146;2023-11-21T00:03:29;22.27;;;17.10;;
43345;SDS011;28937;51.160;4.146;2023-11-21T00:05:55;20.77;;;17.05;;
43345;SDS011;28937;51.160;4.146;2023-11-21T00:08:21;21.05;;;16.73;;
43345;SDS011;28937;51.160;4.146;2023-11-21T00:10:46;18.00;;;14.77;;
43345;SDS011;28937;51.160;4.146;2023-11-21T00:13:12;16.65;;;13.75;;
43345;SDS011;28937;51.160;4.146;2023-11-21T00:15:38;17.58;;;14.63;;
43345;SDS011;28937;51.160;4.146;2023-11-21T00:18:04;17.05;;;14.10;;
43345;SDS011;28937;51.160;4.146;2023-11-21T00:20:30;23.23;;;16.13;;
43345;SDS011;28937;51.160;4.146;2023-11-21T00:22:55;18.27;;;14.88;;
43345;SDS011;28937;51.160;4.146;2023-11-21T00:25:21;17.63;;;15.02;;
43345;SDS011;28937;51.160;4.146;2023-11-21T00:27:47;15.98;;;14.10;;
43345;SDS011;28937;51.160;4.146;2023-11-21T00:30:12;16.77;;;13.52;;
43345;SDS011;28937;51.160;4.146;2023-11-21T00:32:38;21.13;;;13.05;;
43345;SDS011;28937;51.160;4.146;2023-11-21T00:35:05;21.15;;;14.25;;
43345;SDS011;28937;51.160;4.146;2023-11-21T00:37:30;16.17;;;14.13;;
43345;SDS011;28937;51.160;4.146;2023-11-21T00:39:57;17.70;;;13.45;;
43345;SDS011;28937;51.160;4.146;2023-11-21T00:42:22;15.93;;;13.23;;
43345;SDS011;28937;51.160;4.146;2023-11-21T00:44:48;16.52;;;13.02;;
43345;SDS011;28937;51.160;4.146;2023-11-21T00:47:14;18.42;;;14.00;;
43345;SDS011;28937;51.160;4.146;2023-11-21T00:49:39;20.65;;;14.27;;
43345;SDS011;28937;51.160;4.146;2023-11-21T00:52:05;17.83;;;14.82;;
43345;SDS011;28937;51.160;4.146;2023-11-21T00:54:31;18.65;;;14.07;;
43345;SDS011;28937;51.160;4.146;2023-11-21T00:56:57;18.67;;;14.00;;
43345;SDS011;28937;51.160;4.146;2023-11-21T00:59:22;15.75;;;13.85;;
43345;SDS011;28937;51.160;4.146;2023-11-21T01:01:48;18.15;;;14.38;;
43345;SDS011;28937;51.160;4.146;2023-11-21T01:04:14;16.85;;;14.13;;
43345;SDS011;28937;51.160;4.146;2023-11-21T01:06:39;17.00;;;13.88;;
43345;SDS011;28937;51.160;4.146;2023-11-21T01:09:05;18.30;;;14.45;;
43345;SDS011;28937;51.160;4.146;2023-11-21T01:11:36;16.10;;;13.82;;
43345;SDS011;28937;51.160;4.146;2023-11-21T01:14:03;17.52;;;15.05;;
43345;SDS011;28937;51.160;4.146;2023-11-21T01:16:29;17.95;;;15.48;;
43345;SDS011;28937;51.160;4.146;2023-11-21T01:18:57;16.00;;;14.30;;
43345;SDS011;28937;51.160;4.146;2023-11-21T01:21:24;17.98;;;13.90;;
43345;SDS011;28937;51.160;4.146;2023-11-21T01:23:49;16.67;;;13.95;;
43345;SDS011;28937;51.160;4.146;2023-11-21T01:26:15;17.35;;;14.75;;
43345;SDS011;28937;51.160;4.146;2023-11-21T01:28:40;18.95;;;13.85;;
43345;SDS011;28937;51.160;4.146;2023-11-21T01:31:07;18.15;;;14.15;;
43345;SDS011;28937;51.160;4.146;2023-11-21T01:33:32;21.52;;;14.60;;
43345;SDS011;28937;51.160;4.146;2023-11-21T01:35:58;20.85;;;14.40;;
43345;SDS011;28937;51.160;4.146;2023-11-21T01:38:24;18.88;;;14.90;;
43345;SDS011;28937;51.160;4.146;2023-11-21T01:40:50;15.70;;;13.60;;
43345;SDS011;28937;51.160;4.146;2023-11-21T01:43:16;15.25;;;13.60;;
43345;SDS011;28937;51.160;4.146;2023-11-21T01:45:42;20.10;;;13.32;;
43345;SDS011;28937;51.160;4.146;2023-11-21T01:48:07;17.33;;;14.13;;
43345;SDS011;28937;51.160;4.146;2023-11-21T01:50:34;17.60;;;13.77;;
43345;SDS011;28937;51.160;4.146;2023-11-21T01:52:59;17.95;;;13.95;;
43345;SDS011;28937;51.160;4.146;2023-11-21T01:55:26;17.17;;;13.73;;
43345;SDS011;28937;51.160;4.146;2023-11-21T01:57:52;17.55;;;14.00;;
43345;SDS011;28937;51.160;4.146;2023-11-21T02:00:19;18.17;;;13.50;;
43345;SDS011;28937;51.160;4.146;2023-11-21T02:02:45;18.17;;;14.18;;
43345;SDS011;28937;51.160;4.146;2023-11-21T02:05:13;18.90;;;14.13;;
43345;SDS011;28937;51.160;4.146;2023-11-21T02:07:46;21.02;;;15.13;;
43345;SDS011;28937;51.160;4.146;2023-11-21T02:10:17;20.63;;;14.18;;
43345;SDS011;28937;51.160;4.146;2023-11-21T02:12:47;17.80;;;14.35;;
43345;SDS011;28937;51.160;4.146;2023-11-21T02:15:15;18.05;;;13.60;;
43345;SDS011;28937;51.160;4.146;2023-11-21T02:17:45;19.48;;;13.63;;
43345;SDS011;28937;51.160;4.146;2023-11-21T02:20:18;16.65;;;13.73;;
43345;SDS011;28937;51.160;4.146;2023-11-21T02:22:51;17.85;;;13.20;;
43345;SDS011;28937;51.160;4.146;2023-11-21T02:25:22;18.30;;;13.77;;
43345;SDS011;28937;51.160;4.146;2023-11-21T02:27:52;17.55;;;13.65;;
43345;SDS011;28937;51.160;4.146;2023-11-21T02:30:22;17.08;;;13.27;;
43345;SDS011;28937;51.160;4.146;2023-11-21T02:32:50;18.45;;;14.45;;
43345;SDS011;28937;51.160;4.146;2023-11-21T02:35:18;20.27;;;13.82;;
43345;SDS011;28937;51.160;4.146;2023-11-21T02:37:46;20.13;;;13.65;;
43345;SDS011;28937;51.160;4.146;2023-11-21T02:40:12;14.38;;;12.77;;
43345;SDS011;28937;51.160;4.146;2023-11-21T02:42:38;19.85;;;13.52;;
43345;SDS011;28937;51.160;4.146;2023-11-21T02:45:05;18.77;;;12.90;;
43345;SDS011;28937;51.160;4.146;2023-11-21T02:47:31;19.70;;;13.70;;
43345;SDS011;28937;51.160;4.146;2023-11-21T02:49:57;18.02;;;13.77;;
43345;SDS011;28937;51.160;4.146;2023-11-21T02:52:22;20.02;;;13.23;;
43345;SDS011;28937;51.160;4.146;2023-11-21T02:54:48;18.33;;;13.70;;
43345;SDS011;28937;51.160;4.146;2023-11-21T02:57:14;20.10;;;14.10;;
43345;SDS011;28937;51.160;4.146;2023-11-21T02:59:40;18.92;;;13.35;;
43345;SDS011;28937;51.160;4.146;2023-11-21T03:02:05;16.25;;;14.02;;
43345;SDS011;28937;51.160;4.146;2023-11-21T03:04:34;17.98;;;13.43;;
43345;SDS011;28937;51.160;4.146;2023-11-21T03:07:00;17.95;;;13.23;;
43345;SDS011;28937;51.160;4.146;2023-11-21T03:09:25;15.82;;;13.57;;
43345;SDS011;28937;51.160;4.146;2023-11-21T03:11:51;19.75;;;13.95;;
43345;SDS011;28937;51.160;4.146;2023-11-21T03:14:18;15.68;;;13.23;;
43345;SDS011;28937;51.160;4.146;2023-11-21T03:16:43;20.17;;;15.05;;
43345;SDS011;28937;51.160;4.146;2023-11-21T03:19:10;18.13;;;13.85;;
43345;SDS011;28937;51.160;4.146;2023-11-21T03:21:36;18.27;;;14.25;;
43345;SDS011;28937;51.160;4.146;2023-11-21T03:24:02;18.75;;;14.73;;
43345;SDS011;28937;51.160;4.146;2023-11-21T03:26:27;20.30;;;15.10;;
43345;SDS011;28937;51.160;4.146;2023-11-21T03:28:54;21.30;;;15.13;;
43345;SDS011;28937;51.160;4.146;2023-11-21T03:31:20;23.38;;;15.07;;
43345;SDS011;28937;51.160;4.146;2023-11-21T03:33:46;19.98;;;15.27;;
43345;SDS011;28937;51.160;4.146;2023-11-21T03:36:12;19.95;;;14.55;;
43345;SDS011;28937;51.160;4.146;2023-11-21T03:38:39;20.17;;;15.07;;
43345;SDS011;28937;51.160;4.146;2023-11-21T03:41:05;22.40;;;15.10;;
43345;SDS011;28937;51.160;4.146;2023-11-21T03:43:31;18.83;;;15.10;;
43345;SDS011;28937;51.160;4.146;2023-11-21T03:45:57;22.63;;;14.93;;
43345;SDS011;28937;51.160;4.146;2023-11-21T03:48:22;19.45;;;15.43;;
43345;SDS011;28937;51.160;4.146;2023-11-21T03:50:48;20.50;;;15.15;;
43345;SDS011;28937;51.160;4.146;2023-11-21T03:53:13;20.25;;;14.98;;
43345;SDS011;28937;51.160;4.146;2023-11-21T03:55:39;21.08;;;14.70;;
43345;SDS011;28937;51.160;4.146;2023-11-21T03:58:04;18.63;;;15.18;;
43345;SDS011;28937;51.160;4.146;2023-11-21T04:00:30;19.50;;;14.95;;
43345;SDS011;28937;51.160;4.146;2023-11-21T04:02:56;21.90;;;14.55;;
43345;SDS011;28937;51.160;4.146;2023-11-21T04:05:22;18.25;;;14.73;;
43345;SDS011;28937;51.160;4.146;2023-11-21T04:07:49;21.02;;;15.40;;
43345;SDS011;28937;51.160;4.146;2023-11-21T04:10:16;18.45;;;15.25;;
43345;SDS011;28937;51.160;4.146;2023-11-21T04:12:42;15.80;;;13.88;;
43345;SDS011;28937;51.160;4.146;2023-11-21T04:15:07;19.58;;;15.25;;
43345;SDS011;28937;51.160;4.146;2023-11-21T04:17:34;20.08;;;15.40;;
43345;SDS011;28937;51.160;4.146;2023-11-21T04:20:01;17.70;;;14.00;;
43345;SDS011;28937;51.160;4.146;2023-11-21T04:22:28;17.30;;;13.73;;
43345;SDS011;28937;51.160;4.146;2023-11-21T04:24:53;15.57;;;13.68;;
43345;SDS011;28937;51.160;4.146;2023-11-21T04:27:20;18.23;;;14.15;;
43345;SDS011;28937;51.160;4.146;2023-11-21T04:29:46;18.17;;;13.57;;
43345;SDS011;28937;51.160;4.146;2023-11-21T04:32:11;21.55;;;13.90;;
43345;SDS011;28937;51.160;4.146;2023-11-21T04:34:37;18.55;;;14.02;;
43345;SDS011;28937;51.160;4.146;2023-11-21T04:37:03;18.92;;;14.32;;
43345;SDS011;28937;51.160;4.146;2023-11-21T04:39:31;17.70;;;14.52;;
43345;SDS011;28937;51.160;4.146;2023-11-21T04:41:57;16.23;;;13.40;;
43345;SDS011;28937;51.160;4.146;2023-11-21T04:44:22;17.30;;;15.38;;
43345;SDS011;28937;51.160;4.146;2023-11-21T04:46:48;18.67;;;14.05;;
43345;SDS011;28937;51.160;4.146;2023-11-21T04:49:14;17.55;;;14.63;;
43345;SDS011;28937;51.160;4.146;2023-11-21T04:51:40;19.77;;;14.45;;
43345;SDS011;28937;51.160;4.146;2023-11-21T04:54:05;17.48;;;14.07;;
43345;SDS011;28937;51.160;4.146;2023-11-21T04:56:31;19.30;;;14.27;;
43345;SDS011;28937;51.160;4.146;2023-11-21T04:58:56;18.20;;;14.07;;
43345;SDS011;28937;51.160;4.146;2023-11-21T05:01:22;16.40;;;14.38;;
43345;SDS011;28937;51.160;4.146;2023-11-21T05:03:47;18.17;;;12.82;;
43345;SDS011;28937;51.160;4.146;2023-11-21T05:06:14;17.88;;;14.32;;
43345;SDS011;28937;51.160;4.146;2023-11-21T05:08:39;16.00;;;14.13;;
43345;SDS011;28937;51.160;4.146;2023-11-21T05:11:05;17.10;;;14.38;;
43345;SDS011;28937;51.160;4.146;2023-11-21T05:13:35;15.30;;;13.38;;
43345;SDS011;28937;51.160;4.146;2023-11-21T05:16:01;15.27;;;13.68;;
43345;SDS011;28937;51.160;4.146;2023-11-21T05:18:31;20.15;;;14.73;;
43345;SDS011;28937;51.160;4.146;2023-11-21T05:20:57;19.35;;;15.02;;
43345;SDS011;28937;51.160;4.146;2023-11-21T05:23:23;15.93;;;14.15;;
43345;SDS011;28937;51.160;4.146;2023-11-21T05:25:48;17.00;;;14.18;;
43345;SDS011;28937;51.160;4.146;2023-11-21T05:28:14;20.20;;;14.10;;
43345;SDS011;28937;51.160;4.146;2023-11-21T05:30:39;17.05;;;14.30;;
43345;SDS011;28937;51.160;4.146;2023-11-21T05:33:05;16.00;;;13.82;;
43345;SDS011;28937;51.160;4.146;2023-11-21T05:35:30;19.83;;;15.85;;
43345;SDS011;28937;51.160;4.146;2023-11-21T05:37:56;20.95;;;16.67;;
43345;SDS011;28937;51.160;4.146;2023-11-21T05:40:22;18.85;;;15.75;;
43345;SDS011;28937;51.160;4.146;2023-11-21T05:42:48;20.05;;;14.95;;
43345;SDS011;28937;51.160;4.146;2023-11-21T05:45:14;16.00;;;13.73;;
43345;SDS011;28937;51.160;4.146;2023-11-21T05:50:07;18.30;;;13.77;;
43345;SDS011;28937;51.160;4.146;2023-11-21T05:52:40;21.08;;;14.25;;
43345;SDS011;28937;51.160;4.146;2023-11-21T05:55:09;13.88;;;9.85;;
43345;SDS011;28937;51.160;4.146;2023-11-21T05:57:36;14.48;;;9.00;;
43345;SDS011;28937;51.160;4.146;2023-11-21T06:00:07;12.02;;;9.20;;
43345;SDS011;28937;51.160;4.146;2023-11-21T06:02:36;10.73;;;9.15;;
43345;SDS011;28937;51.160;4.146;2023-11-21T06:05:03;11.98;;;8.82;;
43345;SDS011;28937;51.160;4.146;2023-11-21T06:07:29;10.38;;;8.88;;
43345;SDS011;28937;51.160;4.146;2023-11-21T06:09:55;10.75;;;9.25;;
43345;SDS011;28937;51.160;4.146;2023-11-21T06:12:20;14.35;;;9.13;;
43345;SDS011;28937;51.160;4.146;2023-11-21T06:14:46;13.85;;;9.23;;
43345;SDS011;28937;51.160;4.146;2023-11-21T06:17:13;14.27;;;9.98;;
43345;SDS011;28937;51.160;4.146;2023-11-21T06:19:38;11.60;;;8.55;;
43345;SDS011;28937;51.160;4.146;2023-11-21T06:22:04;12.18;;;9.07;;
43345;SDS011;28937;51.160;4.146;2023-11-21T06:24:30;11.52;;;8.07;;
43345;SDS011;28937;51.160;4.146;2023-11-21T06:26:56;14.23;;;8.68;;
43345;SDS011;28937;51.160;4.146;2023-11-21T06:29:22;11.40;;;8.48;;
43345;SDS011;28937;51.160;4.146;2023-11-21T06:31:48;15.43;;;8.98;;
43345;SDS011;28937;51.160;4.146;2023-11-21T06:34:14;12.50;;;8.65;;
43345;SDS011;28937;51.160;4.146;2023-11-21T06:36:40;12.43;;;9.50;;
43345;SDS011;28937;51.160;4.146;2023-11-21T06:39:05;15.18;;;9.50;;
43345;SDS011;28937;51.160;4.146;2023-11-21T06:41:32;13.77;;;9.73;;
43345;SDS011;28937;51.160;4.146;2023-11-21T06:43:58;13.75;;;9.30;;
43345;SDS011;28937;51.160;4.146;2023-11-21T06:46:24;15.63;;;9.77;;
43345;SDS011;28937;51.160;4.146;2023-11-21T06:48:49;12.63;;;9.55;;
43345;SDS011;28937;51.160;4.146;2023-11-21T06:51:15;17.58;;;9.85;;
43345;SDS011;28937;51.160;4.146;2023-11-21T06:53:41;16.83;;;10.55;;
43345;SDS011;28937;51.160;4.146;2023-11-21T06:56:16;15.15;;;10.18;;
43345;SDS011;28937;51.160;4.146;2023-11-21T06:58:43;14.57;;;9.93;;
43345;SDS011;28937;51.160;4.146;2023-11-21T07:01:10;13.13;;;9.57;;
43345;SDS011;28937;51.160;4.146;2023-11-21T07:03:36;12.75;;;9.98;;
43345;SDS011;28937;51.160;4.146;2023-11-21T07:06:02;10.30;;;9.10;;
43345;SDS011;28937;51.160;4.146;2023-11-21T07:08:29;14.38;;;10.23;;
43345;SDS011;28937;51.160;4.146;2023-11-21T07:10:54;14.57;;;9.05;;
43345;SDS011;28937;51.160;4.146;2023-11-21T07:13:20;12.95;;;9.98;;
43345;SDS011;28937;51.160;4.146;2023-11-21T07:15:46;16.00;;;10.65;;
43345;SDS011;28937;51.160;4.146;2023-11-21T07:18:13;13.98;;;10.43;;
43345;SDS011;28937;51.160;4.146;2023-11-21T07:20:38;17.92;;;10.52;;
43345;SDS011;28937;51.160;4.146;2023-11-21T07:23:04;15.85;;;9.45;;
43345;SDS011;28937;51.160;4.146;2023-11-21T07:25:30;16.95;;;10.18;;
43345;SDS011;28937;51.160;4.146;2023-11-21T07:27:57;12.85;;;10.20;;
43345;SDS011;28937;51.160;4.146;2023-11-21T07:30:22;14.90;;;9.10;;
43345;SDS011;28937;51.160;4.146;2023-11-21T07:32:48;14.10;;;9.80;;
43345;SDS011;28937;51.160;4.146;2023-11-21T07:35:14;13.93;;;9.38;;
43345;SDS011;28937;51.160;4.146;2023-11-21T07:37:39;15.65;;;9.20;;
43345;SDS011;28937;51.160;4.146;2023-11-21T07:40:05;17.52;;;10.80;;
43345;SDS011;28937;51.160;4.146;2023-11-21T07:42:33;14.82;;;9.02;;
43345;SDS011;28937;51.160;4.146;2023-11-21T07:44:59;15.80;;;9.98;;
43345;SDS011;28937;51.160;4.146;2023-11-21T07:47:24;16.05;;;10.50;;
43345;SDS011;28937;51.160;4.146;2023-11-21T07:49:52;16.52;;;10.70;;
43345;SDS011;28937;51.160;4.146;2023-11-21T07:52:18;13.75;;;8.98;;
43345;SDS011;28937;51.160;4.146;2023-11-21T07:54:46;16.77;;;10.18;;
43345;SDS011;28937;51.160;4.146;2023-11-21T07:57:11;11.85;;;8.02;;
43345;SDS011;28937;51.160;4.146;2023-11-21T07:59:38;14.38;;;8.65;;
43345;SDS011;28937;51.160;4.146;2023-11-21T08:02:07;13.60;;;9.10;;
43345;SDS011;28937;51.160;4.146;2023-11-21T08:04:33;10.40;;;8.23;;
43345;SDS011;28937;51.160;4.146;2023-11-21T08:07:00;11.73;;;8.73;;
43345;SDS011;28937;51.160;4.146;2023-11-21T08:09:26;11.82;;;8.05;;
43345;SDS011;28937;51.160;4.146;2023-11-21T08:11:52;10.85;;;8.40;;
43345;SDS011;28937;51.160;4.146;2023-11-21T08:14:18;11.98;;;7.50;;
43345;SDS011;28937;51.160;4.146;2023-11-21T08:16:44;10.43;;;6.88;;
43345;SDS011;28937;51.160;4.146;2023-11-21T08:19:09;10.10;;;7.50;;
43345;SDS011;28937;51.160;4.146;2023-11-21T08:21:36;11.43;;;7.10;;
43345;SDS011;28937;51.160;4.146;2023-11-21T08:24:04;7.40;;;6.40;;
43345;SDS011;28937;51.160;4.146;2023-11-21T08:26:30;11.75;;;7.18;;
43345;SDS011;28937;51.160;4.146;2023-11-21T08:28:56;9.35;;;6.50;;
43345;SDS011;28937;51.160;4.146;2023-11-21T08:31:27;9.38;;;6.68;;
43345;SDS011;28937;51.160;4.146;2023-11-21T08:33:54;10.48;;;6.65;;
43345;SDS011;28937;51.160;4.146;2023-11-21T08:36:20;9.25;;;6.82;;
43345;SDS011;28937;51.160;4.146;2023-11-21T08:38:50;11.48;;;6.63;;
43345;SDS011;28937;51.160;4.146;2023-11-21T08:41:17;9.05;;;6.13;;
43345;SDS011;28937;51.160;4.146;2023-11-21T08:43:46;10.32;;;5.82;;
43345;SDS011;28937;51.160;4.146;2023-11-21T08:46:15;8.20;;;6.13;;
43345;SDS011;28937;51.160;4.146;2023-11-21T08:48:42;8.77;;;5.88;;
43345;SDS011;28937;51.160;4.146;2023-11-21T08:51:09;7.78;;;5.25;;
43345;SDS011;28937;51.160;4.146;2023-11-21T08:53:36;8.23;;;6.63;;
43345;SDS011;28937;51.160;4.146;2023-11-21T08:56:02;11.35;;;6.32;;
43345;SDS011;28937;51.160;4.146;2023-11-21T08:58:29;7.32;;;5.53;;
43345;SDS011;28937;51.160;4.146;2023-11-21T09:00:57;7.70;;;5.70;;
43345;SDS011;28937;51.160;4.146;2023-11-21T09:03:22;9.57;;;6.18;;
43345;SDS011;28937;51.160;4.146;2023-11-21T09:05:48;7.80;;;5.63;;
43345;SDS011;28937;51.160;4.146;2023-11-21T09:08:13;8.52;;;5.88;;
43345;SDS011;28937;51.160;4.146;2023-11-21T09:10:39;6.88;;;5.30;;
43345;SDS011;28937;51.160;4.146;2023-11-21T09:13:05;5.60;;;4.93;;
43345;SDS011;28937;51.160;4.146;2023-11-21T09:15:30;10.65;;;5.35;;
43345;SDS011;28937;51.160;4.146;2023-11-21T09:17:56;6.13;;;4.60;;
43345;SDS011;28937;51.160;4.146;2023-11-21T09:20:21;5.28;;;4.65;;
43345;SDS011;28937;51.160;4.146;2023-11-21T09:22:48;6.60;;;5.25;;
43345;SDS011;28937;51.160;4.146;2023-11-21T09:25:14;6.07;;;5.13;;
43345;SDS011;28937;51.160;4.146;2023-11-21T09:27:40;4.88;;;4.35;;
43345;SDS011;28937;51.160;4.146;2023-11-21T09:30:06;6.53;;;4.40;;
43345;SDS011;28937;51.160;4.146;2023-11-21T09:32:34;9.30;;;4.60;;
43345;SDS011;28937;51.160;4.146;2023-11-21T09:35:02;5.85;;;4.35;;
43345;SDS011;28937;51.160;4.146;2023-11-21T09:37:28;6.25;;;4.28;;
43345;SDS011;28937;51.160;4.146;2023-11-21T09:39:54;5.07;;;3.80;;
43345;SDS011;28937;51.160;4.146;2023-11-21T09:42:23;4.55;;;3.78;;
43345;SDS011;28937;51.160;4.146;2023-11-21T09:45:00;5.80;;;4.82;;
43345;SDS011;28937;51.160;4.146;2023-11-21T09:47:32;5.80;;;4.80;;
43345;SDS011;28937;51.160;4.146;2023-11-21T09:50:03;6.35;;;4.70;;
43345;SDS011;28937;51.160;4.146;2023-11-21T09:52:32;7.40;;;5.43;;
43345;SDS011;28937;51.160;4.146;2023-11-21T09:55:22;5.75;;;5.15;;
43345;SDS011;28937;51.160;4.146;2023-11-21T09:57:52;12.15;;;4.88;;
43345;SDS011;28937;51.160;4.146;2023-11-21T10:00:20;7.82;;;5.25;;
43345;SDS011;28937;51.160;4.146;2023-11-21T10:02:48;7.97;;;4.35;;
43345;SDS011;28937;51.160;4.146;2023-11-21T10:05:14;7.18;;;4.15;;
43345;SDS011;28937;51.160;4.146;2023-11-21T10:07:42;6.50;;;4.38;;
43345;SDS011;28937;51.160;4.146;2023-11-21T10:10:10;7.15;;;4.40;;
43345;SDS011;28937;51.160;4.146;2023-11-21T10:12:35;8.68;;;5.15;;
43345;SDS011;28937;51.160;4.146;2023-11-21T10:15:03;5.60;;;3.97;;
43345;SDS011;28937;51.160;4.146;2023-11-21T10:17:32;7.10;;;3.63;;
43345;SDS011;28937;51.160;4.146;2023-11-21T10:20:08;7.60;;;3.75;;
43345;SDS011;28937;51.160;4.146;2023-11-21T10:22:39;4.43;;;3.00;;
43345;SDS011;28937;51.160;4.146;2023-11-21T10:25:07;4.63;;;2.88;;
43345;SDS011;28937;51.160;4.146;2023-11-21T10:27:37;5.03;;;3.30;;
43345;SDS011;28937;51.160;4.146;2023-11-21T10:30:06;6.90;;;3.25;;
43345;SDS011;28937;51.160;4.146;2023-11-21T10:32:33;7.57;;;3.28;;
43345;SDS011;28937;51.160;4.146;2023-11-21T10:34:59;8.48;;;2.70;;
43345;SDS011;28937;51.160;4.146;2023-11-21T10:37:32;5.93;;;2.13;;
43345;SDS011;28937;51.160;4.146;2023-11-21T10:40:01;6.00;;;2.40;;
43345;SDS011;28937;51.160;4.146;2023-11-21T10:42:27;7.85;;;2.10;;
43345;SDS011;28937;51.160;4.146;2023-11-21T10:44:53;8.23;;;2.40;;
43345;SDS011;28937;51.160;4.146;2023-11-21T10:47:20;6.85;;;2.40;;
43345;SDS011;28937;51.160;4.146;2023-11-21T10:49:50;7.72;;;3.33;;
43345;SDS011;28937;51.160;4.146;2023-11-21T10:52:19;6.13;;;2.30;;
43345;SDS011;28937;51.160;4.146;2023-11-21T10:54:45;6.55;;;2.33;;
43345;SDS011;28937;51.160;4.146;2023-11-21T10:57:11;4.90;;;1.98;;
43345;SDS011;28937;51.160;4.146;2023-11-21T10:59:42;10.35;;;2.50;;
43345;SDS011;28937;51.160;4.146;2023-11-21T11:02:24;5.85;;;2.25;;
43345;SDS011;28937;51.160;4.146;2023-11-21T11:04:53;4.35;;;2.05;;
43345;SDS011;28937;51.160;4.146;2023-11-21T11:07:25;6.20;;;2.28;;
43345;SDS011;28937;51.160;4.146;2023-11-21T11:09:53;7.07;;;2.30;;
43345;SDS011;28937;51.160;4.146;2023-11-21T11:12:20;4.65;;;1.80;;
43345;SDS011;28937;51.160;4.146;2023-11-21T11:14:46;7.10;;;1.95;;
43345;SDS011;28937;51.160;4.146;2023-11-21T11:17:13;4.95;;;2.20;;
43345;SDS011;28937;51.160;4.146;2023-11-21T11:19:39;5.63;;;2.00;;
43345;SDS011;28937;51.160;4.146;2023-11-21T11:22:14;7.43;;;2.40;;
43345;SDS011;28937;51.160;4.146;2023-11-21T11:24:54;6.45;;;2.22;;
43345;SDS011;28937;51.160;4.146;2023-11-21T11:33:53;7.47;;;2.25;;
43345;SDS011;28937;51.160;4.146;2023-11-21T11:36:25;5.38;;;2.10;;
43345;SDS011;28937;51.160;4.146;2023-11-21T11:38:52;4.45;;;1.90;;
43345;SDS011;28937;51.160;4.146;2023-11-21T11:41:25;5.18;;;1.88;;
43345;SDS011;28937;51.160;4.146;2023-11-21T11:43:52;3.40;;;1.25;;
43345;SDS011;28937;51.160;4.146;2023-11-21T11:46:18;8.52;;;2.08;;
43345;SDS011;28937;51.160;4.146;2023-11-21T11:48:46;4.47;;;2.28;;
43345;SDS011;28937;51.160;4.146;2023-11-21T11:51:13;4.82;;;1.85;;
43345;SDS011;28937;51.160;4.146;2023-11-21T11:53:42;5.00;;;1.98;;
43345;SDS011;28937;51.160;4.146;2023-11-21T11:56:27;6.47;;;2.60;;
43345;SDS011;28937;51.160;4.146;2023-11-21T11:58:56;7.18;;;2.42;;
43345;SDS011;28937;51.160;4.146;2023-11-21T12:01:24;5.63;;;2.30;;
43345;SDS011;28937;51.160;4.146;2023-11-21T12:06:36;5.88;;;2.20;;
43345;SDS011;28937;51.160;4.146;2023-11-21T12:09:02;3.67;;;1.95;;
43345;SDS011;28937;51.160;4.146;2023-11-21T12:11:31;2.55;;;1.98;;
43345;SDS011;28937;51.160;4.146;2023-11-21T12:13:58;4.70;;;2.10;;
43345;SDS011;28937;51.160;4.146;2023-11-21T12:16:25;5.05;;;2.33;;
43345;SDS011;28937;51.160;4.146;2023-11-21T12:18:52;4.32;;;2.33;;
43345;SDS011;28937;51.160;4.146;2023-11-21T12:21:20;3.83;;;2.78;;
43345;SDS011;28937;51.160;4.146;2023-11-21T12:23:46;4.10;;;2.75;;
43345;SDS011;28937;51.160;4.146;2023-11-21T12:26:12;5.63;;;3.03;;
43345;SDS011;28937;51.160;4.146;2023-11-21T12:28:38;5.10;;;3.10;;
43345;SDS011;28937;51.160;4.146;2023-11-21T12:31:04;4.25;;;3.13;;
43345;SDS011;28937;51.160;4.146;2023-11-21T12:33:32;4.43;;;3.22;;
43345;SDS011;28937;51.160;4.146;2023-11-21T12:36:00;3.65;;;3.20;;
43345;SDS011;28937;51.160;4.146;2023-11-21T12:38:33;6.25;;;4.20;;
43345;SDS011;28937;51.160;4.146;2023-11-21T12:41:00;4.13;;;3.53;;
43345;SDS011;28937;51.160;4.146;2023-11-21T12:43:25;5.07;;;3.88;;
43345;SDS011;28937;51.160;4.146;2023-11-21T12:45:51;4.18;;;3.33;;
43345;SDS011;28937;51.160;4.146;2023-11-21T12:48:39;4.78;;;3.65;;
43345;SDS011;28937;51.160;4.146;2023-11-21T12:51:09;6.10;;;3.63;;
43345;SDS011;28937;51.160;4.146;2023-11-21T12:56:09;6.80;;;2.80;;
43345;SDS011;28937;51.160;4.146;2023-11-21T12:58:36;5.47;;;4.53;;
43345;SDS011;28937;51.160;4.146;2023-11-21T13:01:04;6.97;;;4.18;;
43345;SDS011;28937;51.160;4.146;2023-11-21T13:03:31;6.20;;;3.97;;
43345;SDS011;28937;51.160;4.146;2023-11-21T13:05:57;5.85;;;4.40;;
43345;SDS011;28937;51.160;4.146;2023-11-21T13:08:24;3.83;;;3.40;;
43345;SDS011;28937;51.160;4.146;2023-11-21T13:10:52;4.45;;;3.60;;
43345;SDS011;28937;51.160;4.146;2023-11-21T13:13:21;5.55;;;4.20;;
43345;SDS011;28937;51.160;4.146;2023-11-21T13:18:16;4.75;;;3.40;;
43345;SDS011;28937;51.160;4.146;2023-11-21T13:20:42;3.85;;;3.47;;
43345;SDS011;28937;51.160;4.146;2023-11-21T13:23:08;4.35;;;3.60;;
43345;SDS011;28937;51.160;4.146;2023-11-21T13:25:37;3.40;;;3.10;;
43345;SDS011;28937;51.160;4.146;2023-11-21T13:28:05;5.53;;;3.97;;
43345;SDS011;28937;51.160;4.146;2023-11-21T13:30:31;3.90;;;3.47;;
43345;SDS011;28937;51.160;4.146;2023-11-21T13:33:03;3.90;;;3.20;;
43345;SDS011;28937;51.160;4.146;2023-11-21T13:35:34;3.60;;;3.30;;
43345;SDS011;28937;51.160;4.146;2023-11-21T13:38:07;5.60;;;3.90;;
43345;SDS011;28937;51.160;4.146;2023-11-21T13:40:34;3.80;;;3.05;;
43345;SDS011;28937;51.160;4.146;2023-11-21T13:43:11;3.40;;;2.90;;
43345;SDS011;28937;51.160;4.146;2023-11-21T13:45:38;4.82;;;3.35;;
43345;SDS011;28937;51.160;4.146;2023-11-21T13:48:05;4.72;;;4.13;;
43345;SDS011;28937;51.160;4.146;2023-11-21T13:50:42;6.78;;;3.10;;
43345;SDS011;28937;51.160;4.146;2023-11-21T13:53:34;5.10;;;3.60;;
43345;SDS011;28937;51.160;4.146;2023-11-21T13:56:02;5.45;;;3.97;;
43345;SDS011;28937;51.160;4.146;2023-11-21T13:58:28;3.83;;;3.20;;
43345;SDS011;28937;51.160;4.146;2023-11-21T14:01:11;3.72;;;2.88;;
43345;SDS011;28937;51.160;4.146;2023-11-21T14:03:56;4.45;;;3.22;;
43345;SDS011;28937;51.160;4.146;2023-11-21T14:09:13;3.40;;;3.08;;
43345;SDS011;28937;51.160;4.146;2023-11-21T14:11:57;4.82;;;3.25;;
43345;SDS011;28937;51.160;4.146;2023-11-21T14:14:25;5.18;;;3.13;;
43345;SDS011;28937;51.160;4.146;2023-11-21T14:16:54;4.18;;;3.05;;
43345;SDS011;28937;51.160;4.146;2023-11-21T14:19:31;4.05;;;3.17;;
43345;SDS011;28937;51.160;4.146;2023-11-21T14:21:58;3.90;;;3.17;;
43345;SDS011;28937;51.160;4.146;2023-11-21T14:24:24;3.92;;;3.22;;
43345;SDS011;28937;51.160;4.146;2023-11-21T14:26:50;4.60;;;3.95;;
43345;SDS011;28937;51.160;4.146;2023-11-21T14:29:17;5.43;;;3.72;;
43345;SDS011;28937;51.160;4.146;2023-11-21T14:31:45;4.55;;;3.58;;
43345;SDS011;28937;51.160;4.146;2023-11-21T14:34:15;5.32;;;3.58;;
43345;SDS011;28937;51.160;4.146;2023-11-21T14:36:41;5.32;;;4.10;;
43345;SDS011;28937;51.160;4.146;2023-11-21T14:39:08;4.72;;;3.75;;
43345;SDS011;28937;51.160;4.146;2023-11-21T14:41:45;6.85;;;6.03;;
43345;SDS011;28937;51.160;4.146;2023-11-21T14:44:11;6.43;;;5.18;;
43345;SDS011;28937;51.160;4.146;2023-11-21T14:46:37;9.02;;;7.68;;
43345;SDS011;28937;51.160;4.146;2023-11-21T14:49:04;6.22;;;5.35;;
43345;SDS011;28937;51.160;4.146;2023-11-21T14:51:52;6.88;;;5.68;;
43345;SDS011;28937;51.160;4.146;2023-11-21T14:54:28;6.13;;;5.50;;